createdAt,value
2019-04-20T00:00:09.096Z,17.57
2019-04-20T00:05:07.532Z,13.94
2019-04-20T00:10:14.871Z,15.37
2019-04-20T00:15:13.062Z,16.60
2019-04-20T00:20:20.674Z,15.46
2019-04-20T00:25:20.060Z,17.54
2019-04-20T00:30:39.074Z,21.61
2019-04-20T00:35:20.913Z,16.72
2019-04-20T00:40:22.086Z,15.83
2019-04-20T00:45:29.526Z,17.54
2019-04-20T00:50:42.667Z,15.11
2019-04-20T00:55:29.325Z,16.94
2019-04-20T01:00:48.467Z,12.87
2019-04-20T01:05:53.524Z,15.41
2019-04-20T01:10:41.634Z,17.52
2019-04-20T01:15:48.855Z,14.74
2019-04-20T01:20:41.056Z,16.51
2019-04-20T01:25:43.702Z,16.52
2019-04-20T01:30:58.530Z,15.71
2019-04-20T01:35:57.112Z,12.96
2019-04-20T01:40:48.450Z,13.36
2019-04-20T01:45:58.616Z,9.90
2019-04-20T01:50:59.801Z,12.11
2019-04-20T01:56:15.438Z,8.57
2019-04-20T02:00:57.598Z,9.80
2019-04-20T02:06:05.587Z,9.92
2019-04-20T02:11:03.243Z,15.75
2019-04-20T02:16:12.556Z,10.35
2019-04-20T02:21:20.901Z,10.87
2019-04-20T02:26:07.128Z,14.14
2019-04-20T02:31:42.807Z,11.31
2019-04-20T02:36:51.707Z,15.06
2019-04-20T02:41:35.783Z,10.28
2019-04-20T02:51:53.948Z,14.88
2019-04-20T02:56:45.267Z,12.76
2019-04-20T03:01:40.863Z,10.68
2019-04-20T03:06:38.833Z,12.25
2019-04-20T03:11:59.746Z,11.28
2019-04-20T03:16:44.693Z,9.96
2019-04-20T03:21:54.129Z,14.13
2019-04-20T03:26:47.326Z,15.08
2019-04-20T03:32:25.239Z,10.16
2019-04-20T03:36:53.563Z,15.27
2019-04-20T03:41:46.317Z,15.73
2019-04-20T03:46:51.605Z,11.64
2019-04-20T03:52:05.110Z,13.89
2019-04-20T03:57:02.019Z,13.79
2019-04-20T04:02:25.158Z,11.34
2019-04-20T04:06:56.169Z,15.82
2019-04-20T04:12:06.573Z,15.92
2019-04-20T04:16:57.934Z,12.12
2019-04-20T04:22:04.059Z,13.55
2019-04-20T04:27:09.555Z,10.24
2019-04-20T04:32:33.137Z,13.68
2019-04-20T04:37:22.876Z,13.10
2019-04-20T04:42:19.122Z,13.17
2019-04-20T04:47:10.134Z,13.10
2019-04-20T04:52:15.359Z,12.38
2019-04-20T04:57:11.581Z,16.37
2019-04-20T05:02:13.804Z,12.41
2019-04-20T05:07:32.192Z,12.16
2019-04-20T05:12:22.056Z,13.78
2019-04-20T05:17:39.270Z,16.37
2019-04-20T05:22:38.959Z,14.39
2019-04-20T05:32:35.827Z,14.24
2019-04-20T05:37:58.964Z,14.87
2019-04-20T05:42:49.933Z,10.92
2019-04-20T05:47:48.520Z,8.93
2019-04-20T05:52:57.429Z,9.27
2019-04-20T05:58:08.790Z,8.58
2019-04-20T06:03:06.002Z,6.83
2019-04-20T06:08:20.429Z,8.40
2019-04-20T06:13:17.349Z,9.99
2019-04-20T06:18:15.127Z,7.17
2019-04-20T06:23:38.717Z,8.18
2019-04-20T06:28:40.011Z,7.10
2019-04-20T06:34:01.527Z,5.65
2019-04-20T06:38:57.433Z,7.52
2019-04-20T06:49:10.397Z,6.00
2019-04-20T06:59:19.666Z,5.47
2019-04-20T07:04:36.441Z,4.89
2019-04-20T07:09:21.703Z,4.25
2019-04-20T07:14:05.063Z,3.22
2019-04-20T07:19:23.985Z,3.85
2019-04-20T07:34:21.460Z,3.48
2019-04-20T07:39:32.760Z,4.47
2019-04-20T07:49:36.940Z,7.25
2019-04-20T07:54:50.698Z,5.44
2019-04-20T07:59:30.067Z,6.43
2019-04-20T08:04:39.053Z,5.45
2019-04-20T08:09:34.175Z,5.21
2019-04-20T08:14:44.462Z,4.20
2019-04-20T08:19:47.376Z,5.52
2019-04-20T08:24:42.880Z,4.98
2019-04-20T08:29:45.091Z,5.66
2019-04-20T08:34:54.730Z,3.37
2019-04-20T08:45:04.138Z,6.50
2019-04-20T08:50:06.158Z,4.76
2019-04-20T08:55:04.665Z,5.22
2019-04-20T08:59:48.213Z,6.96
2019-04-20T09:04:55.220Z,6.55
2019-04-20T09:10:04.817Z,4.36
2019-04-20T09:14:50.986Z,6.23
2019-04-20T09:20:00.243Z,4.46
2019-04-20T09:25:26.537Z,5.48
2019-04-20T09:30:08.910Z,8.53
2019-04-20T09:35:20.640Z,3.76
2019-04-20T09:40:21.866Z,2.09
2019-04-20T09:45:04.912Z,3.93
2019-04-20T09:50:22.686Z,3.78
2019-04-20T09:55:23.265Z,3.77
2019-04-20T10:00:22.713Z,5.65
2019-04-20T10:05:11.740Z,7.47
2019-04-20T10:10:26.051Z,6.05
2019-04-20T10:15:20.954Z,4.24
2019-04-20T10:20:24.398Z,3.26
2019-04-20T10:25:20.975Z,2.96
2019-04-20T10:30:23.769Z,5.21
2019-04-20T10:35:27.535Z,3.40
2019-04-20T10:40:38.095Z,6.18
2019-04-20T10:45:30.890Z,3.65
2019-04-20T10:50:32.438Z,2.89
2019-04-20T10:55:35.510Z,5.13
2019-04-20T11:00:37.617Z,4.41
2019-04-20T11:05:40.359Z,2.64
2019-04-20T11:10:55.455Z,3.57
2019-04-20T11:15:44.308Z,3.54
2019-04-20T11:20:45.661Z,3.41
2019-04-20T11:25:48.492Z,3.47
2019-04-20T11:30:52.071Z,2.59
2019-04-20T11:35:53.235Z,3.88
2019-04-20T11:41:03.793Z,3.30
2019-04-20T11:45:56.529Z,7.52
2019-04-20T11:50:58.703Z,4.29
2019-04-20T11:56:02.478Z,3.75
2019-04-20T12:01:08.647Z,4.08
2019-04-20T12:06:08.450Z,6.33
2019-04-20T12:11:22.754Z,3.39
2019-04-20T12:16:10.045Z,3.95
2019-04-20T12:21:12.861Z,4.27
2019-04-20T12:26:16.095Z,4.61
2019-04-20T12:31:20.925Z,3.34
2019-04-20T12:36:20.533Z,3.78
2019-04-20T12:41:34.434Z,4.27
2019-04-20T12:46:24.878Z,4.69
2019-04-20T12:51:31.452Z,4.62
2019-04-20T12:56:29.155Z,5.16
2019-04-20T13:01:33.024Z,8.77
2019-04-20T13:06:34.410Z,9.99
2019-04-20T13:11:48.676Z,5.49
2019-04-20T13:16:38.637Z,4.16
2019-04-20T13:21:41.009Z,5.52
2019-04-20T13:26:42.776Z,4.13
2019-04-20T13:31:48.113Z,4.98
2019-04-20T13:36:48.408Z,3.19
2019-04-20T13:42:00.683Z,5.87
2019-04-20T13:46:52.357Z,4.77
2019-04-20T13:51:55.317Z,6.71
2019-04-20T13:56:58.146Z,5.62
2019-04-20T14:02:01.318Z,4.99
2019-04-20T14:07:03.621Z,5.51
2019-04-20T14:12:20.075Z,6.57
2019-04-20T14:17:07.575Z,7.03
2019-04-20T14:22:10.290Z,7.30
2019-04-20T14:27:12.986Z,3.91
2019-04-20T14:32:14.733Z,2.93
2019-04-20T14:37:17.128Z,4.50
2019-04-20T14:42:30.181Z,5.47
2019-04-20T14:47:21.742Z,2.85
2019-04-20T14:52:25.837Z,4.69
2019-04-20T14:57:27.628Z,3.90
2019-04-20T15:02:30.117Z,4.20
2019-04-20T15:07:31.087Z,3.79
2019-04-20T15:12:41.731Z,6.34
2019-04-20T15:17:37.446Z,5.84
2019-04-20T15:22:39.215Z,3.40
2019-04-20T15:27:43.995Z,5.63
2019-04-20T15:32:43.187Z,5.29
2019-04-20T15:37:46.930Z,3.59
2019-04-20T15:42:51.614Z,6.11
2019-04-20T15:47:50.202Z,3.79
2019-04-20T15:52:54.856Z,3.37
2019-04-20T15:57:55.556Z,5.07
2019-04-20T16:02:59.059Z,4.53
2019-04-20T16:08:03.268Z,3.77
2019-04-20T16:13:15.970Z,6.70
2019-04-20T16:18:05.150Z,5.29
2019-04-20T16:23:07.004Z,5.17
2019-04-20T16:28:09.808Z,4.05
2019-04-20T16:33:12.413Z,4.46
2019-04-20T16:38:14.188Z,6.19
2019-04-20T16:43:23.953Z,5.06
2019-04-20T16:48:18.080Z,2.64
2019-04-20T16:53:20.375Z,4.27
2019-04-20T16:58:23.889Z,4.00
2019-04-20T17:03:38.155Z,5.06
2019-04-20T17:08:29.119Z,3.25
2019-04-20T17:13:37.977Z,3.86
2019-04-20T17:18:31.871Z,5.69
2019-04-20T17:23:35.255Z,4.71
2019-04-20T17:28:36.312Z,5.17
2019-04-20T17:33:50.688Z,4.22
2019-04-20T17:38:45.953Z,3.98
2019-04-20T17:44:00.273Z,3.98
2019-04-20T17:49:05.530Z,3.95
2019-04-20T17:53:54.548Z,4.57
2019-04-20T17:58:50.319Z,7.45
2019-04-20T18:04:24.474Z,4.48
2019-04-20T18:09:07.079Z,5.51
2019-04-20T18:14:05.585Z,6.12
2019-04-20T18:19:07.492Z,4.35
2019-04-20T18:24:05.269Z,7.17
2019-04-20T18:34:13.149Z,9.23
2019-04-20T18:39:13.227Z,4.94
2019-04-20T18:44:10.633Z,4.84
2019-04-20T18:49:24.395Z,5.66
2019-04-20T18:54:17.344Z,5.57
2019-04-20T18:59:13.186Z,5.32
2019-04-20T19:04:14.163Z,4.09
2019-04-20T19:09:20.638Z,5.39
2019-04-20T19:14:26.027Z,6.04
2019-04-20T19:19:24.551Z,7.12
2019-04-20T19:24:21.162Z,5.16
2019-04-20T19:29:29.623Z,8.92
2019-04-20T19:34:37.767Z,7.01
2019-04-20T19:39:32.949Z,5.39
2019-04-20T19:44:41.933Z,5.69
2019-04-20T19:49:38.186Z,6.08
2019-04-20T19:54:51.970Z,7.18
2019-04-20T19:59:40.415Z,6.62
2019-04-20T20:04:42.601Z,5.04
2019-04-20T20:09:48.027Z,5.83
2019-04-20T20:14:44.083Z,4.78
2019-04-20T20:20:13.109Z,7.56
2019-04-20T20:24:45.090Z,6.36
2019-04-20T20:34:56.012Z,7.93
2019-04-20T20:39:59.612Z,5.06
2019-04-20T20:45:06.704Z,8.41
2019-04-20T20:55:06.509Z,5.58
2019-04-20T21:00:07.221Z,6.03
2019-04-20T21:05:02.132Z,6.06
2019-04-20T21:10:04.533Z,7.56
2019-04-20T21:15:13.237Z,7.19
2019-04-20T21:20:18.532Z,6.39
2019-04-20T21:25:12.844Z,5.71
2019-04-20T21:30:18.300Z,6.39
2019-04-20T21:35:16.131Z,10.05
2019-04-20T21:40:24.937Z,8.55
2019-04-20T21:45:25.543Z,9.23
2019-04-20T21:50:36.966Z,8.56
2019-04-20T21:55:25.943Z,9.35
2019-04-20T22:05:30.359Z,5.96
2019-04-20T22:10:32.905Z,7.35
2019-04-20T22:15:40.657Z,6.22
2019-04-20T22:25:54.501Z,6.31
2019-04-20T22:30:42.043Z,6.10
2019-04-20T22:35:48.557Z,8.84
2019-04-20T22:40:45.336Z,6.94
2019-04-20T22:45:53.436Z,8.01
2019-04-20T22:51:10.180Z,6.97
2019-04-20T22:56:11.068Z,7.28
2019-04-20T23:00:59.199Z,8.57
2019-04-20T23:05:56.543Z,6.29
2019-04-20T23:10:59.681Z,7.57
2019-04-20T23:16:03.701Z,6.42
2019-04-20T23:21:06.361Z,9.45
2019-04-20T23:26:05.237Z,6.55
2019-04-20T23:31:16.433Z,6.15
2019-04-20T23:36:11.435Z,7.46
2019-04-20T23:41:11.753Z,15.18
2019-04-20T23:46:19.892Z,9.81
2019-04-20T23:51:36.990Z,9.12
2019-04-20T23:56:20.405Z,6.53
